createdAt,value
2019-01-17T00:01:06.863Z,84.30
2019-01-17T00:02:42.918Z,84.40
2019-01-17T00:04:18.945Z,84.30
2019-01-17T00:05:54.442Z,84.50
2019-01-17T00:07:30.724Z,84.20
2019-01-17T00:09:06.045Z,84.00
2019-01-17T00:10:41.396Z,84.10
2019-01-17T00:12:07.355Z,84.00
2019-01-17T00:13:43.153Z,83.90
2019-01-17T00:15:21.637Z,83.90
2019-01-17T00:16:57.021Z,83.80
2019-01-17T00:18:35.567Z,83.80
2019-01-17T00:20:11.109Z,83.90
2019-01-17T00:21:48.492Z,84.10
2019-01-17T00:23:23.870Z,84.30
2019-01-17T00:24:51.268Z,84.40
2019-01-17T00:26:33.801Z,84.60
2019-01-17T00:28:09.188Z,84.70
2019-01-17T00:29:57.469Z,84.80
2019-01-17T00:31:43.527Z,84.80
2019-01-17T00:33:19.338Z,84.90
2019-01-17T00:34:49.600Z,85.40
2019-01-17T00:36:25.097Z,85.40
2019-01-17T00:38:00.544Z,85.50
2019-01-17T00:39:36.032Z,85.40
2019-01-17T00:41:14.172Z,85.20
2019-01-17T00:42:38.581Z,85.20
2019-01-17T00:44:14.351Z,85.00
2019-01-17T00:45:49.816Z,84.10
2019-01-17T00:47:25.337Z,84.00
2019-01-17T00:48:57.784Z,83.40
2019-01-17T00:50:33.479Z,83.00
2019-01-17T00:52:15.706Z,83.00
2019-01-17T00:53:45.417Z,82.60
2019-01-17T00:55:28.536Z,83.10
2019-01-17T00:57:04.261Z,83.60
2019-01-17T00:58:40.411Z,83.90
2019-01-17T01:00:05.123Z,83.30
2019-01-17T01:01:42.335Z,83.70
2019-01-17T01:03:21.143Z,83.90
2019-01-17T01:04:59.128Z,82.30
2019-01-17T01:06:53.985Z,81.50
2019-01-17T01:08:29.480Z,81.20
2019-01-17T01:10:04.715Z,81.60
2019-01-17T01:11:40.139Z,81.70
2019-01-17T01:13:15.655Z,82.60
2019-01-17T01:14:51.161Z,82.20
2019-01-17T01:16:26.604Z,82.60
2019-01-17T01:18:02.027Z,83.00
2019-01-17T01:19:37.472Z,83.80
2019-01-17T01:21:12.893Z,84.40
2019-01-17T01:22:47.897Z,84.20
2019-01-17T01:24:19.504Z,83.10
2019-01-17T01:25:54.865Z,82.60
2019-01-17T01:27:36.153Z,82.40
2019-01-17T01:29:11.491Z,82.60
2019-01-17T01:30:46.795Z,83.00
2019-01-17T01:32:18.373Z,82.80
2019-01-17T01:34:10.977Z,82.80
2019-01-17T01:35:47.092Z,83.30
2019-01-17T01:37:28.483Z,83.00
2019-01-17T01:39:07.072Z,82.70
2019-01-17T01:40:36.213Z,82.80
2019-01-17T01:42:11.829Z,83.10
2019-01-17T01:43:50.164Z,83.20
2019-01-17T01:45:25.524Z,83.00
2019-01-17T01:46:50.922Z,82.90
2019-01-17T01:48:34.205Z,83.00
2019-01-17T01:50:09.728Z,83.00
2019-01-17T01:51:45.047Z,83.10
2019-01-17T01:53:09.116Z,83.10
2019-01-17T01:54:26.105Z,82.90
2019-01-17T01:55:43.056Z,82.90
2019-01-17T01:56:59.378Z,82.90
2019-01-17T01:58:15.892Z,83.00
2019-01-17T01:59:32.556Z,82.90
2019-01-17T02:00:49.288Z,83.00
2019-01-17T02:02:06.361Z,83.00
2019-01-17T02:03:22.724Z,83.20
2019-01-17T02:04:39.025Z,83.60
2019-01-17T02:05:56.186Z,83.80
2019-01-17T02:07:12.757Z,83.90
2019-01-17T02:08:29.079Z,84.10
2019-01-17T02:09:45.816Z,84.00
2019-01-17T02:11:02.942Z,83.70
2019-01-17T02:12:19.376Z,83.60
2019-01-17T02:13:35.801Z,83.40
2019-01-17T02:14:52.125Z,83.20
2019-01-17T02:16:10.393Z,83.20
2019-01-17T02:17:26.960Z,83.20
2019-01-17T02:18:43.386Z,83.00
2019-01-17T02:20:00.045Z,83.10
2019-01-17T02:21:16.704Z,83.10
2019-01-17T02:22:33.147Z,83.20
2019-01-17T02:23:49.805Z,83.20
2019-01-17T02:25:07.134Z,83.10
2019-01-17T02:26:23.421Z,83.00
2019-01-17T02:27:40.162Z,83.10
2019-01-17T02:28:57.911Z,83.10
2019-01-17T02:30:14.262Z,83.10
2019-01-17T02:31:30.561Z,83.20
2019-01-17T02:32:46.998Z,82.60
2019-01-17T02:34:03.349Z,82.70
2019-01-17T02:35:19.837Z,82.60
2019-01-17T02:36:36.022Z,82.50
2019-01-17T02:37:52.377Z,82.50
2019-01-17T02:39:08.682Z,82.30
2019-01-17T02:40:24.984Z,82.40
2019-01-17T02:41:41.611Z,82.30
2019-01-17T02:42:58.708Z,82.40
2019-01-17T02:44:15.205Z,82.50
2019-01-17T02:45:31.745Z,82.60
2019-01-17T02:46:48.019Z,82.70
2019-01-17T02:48:04.442Z,82.60
2019-01-17T02:49:20.974Z,82.40
2019-01-17T02:50:37.514Z,82.10
2019-01-17T02:51:54.126Z,82.10
2019-01-17T02:53:10.520Z,82.20
2019-01-17T02:54:27.141Z,82.20
2019-01-17T02:55:43.557Z,82.20
2019-01-17T02:57:00.366Z,82.20
2019-01-17T02:58:16.861Z,82.30
2019-01-17T02:59:34.122Z,82.20
2019-01-17T03:00:51.310Z,82.20
2019-01-17T03:02:07.644Z,82.00
2019-01-17T03:03:23.989Z,82.10
2019-01-17T03:04:41.085Z,82.50
2019-01-17T03:05:57.636Z,82.60
2019-01-17T03:07:13.981Z,83.00
2019-01-17T03:08:30.480Z,82.70
2019-01-17T03:09:45.797Z,82.60
2019-01-17T03:11:09.956Z,82.60
2019-01-17T03:12:27.128Z,82.70
2019-01-17T03:13:43.601Z,82.60
2019-01-17T03:14:59.965Z,82.60
2019-01-17T03:16:16.728Z,82.60
2019-01-17T03:17:33.616Z,82.70
2019-01-17T03:18:50.196Z,82.60
2019-01-17T03:20:07.341Z,82.60
2019-01-17T03:21:23.748Z,82.60
2019-01-17T03:22:40.826Z,82.60
2019-01-17T03:23:58.040Z,82.70
2019-01-17T03:25:15.538Z,82.70
2019-01-17T03:26:32.113Z,82.80
2019-01-17T03:27:48.865Z,82.70
2019-01-17T03:29:05.322Z,82.60
2019-01-17T03:30:21.865Z,82.60
2019-01-17T03:31:38.274Z,82.50
2019-01-17T03:32:54.667Z,82.50
2019-01-17T03:34:11.158Z,82.40
2019-01-17T03:35:27.849Z,82.50
2019-01-17T03:36:44.374Z,82.40
2019-01-17T03:38:01.322Z,82.40
2019-01-17T03:39:17.651Z,82.40
2019-01-17T03:40:34.156Z,82.50
2019-01-17T03:41:51.557Z,82.50
2019-01-17T03:43:08.865Z,82.50
2019-01-17T03:44:25.733Z,82.40
2019-01-17T03:45:42.988Z,82.10
2019-01-17T03:46:59.669Z,81.90
2019-01-17T03:48:16.080Z,82.00
2019-01-17T03:49:32.680Z,82.10
2019-01-17T03:50:49.798Z,82.30
2019-01-17T03:52:06.799Z,82.40
2019-01-17T03:53:23.345Z,82.50
2019-01-17T03:54:39.941Z,82.70
2019-01-17T03:55:56.736Z,82.80
2019-01-17T03:57:13.085Z,82.50
2019-01-17T03:58:30.326Z,82.60
2019-01-17T03:59:47.442Z,82.80
2019-01-17T04:01:04.988Z,83.00
2019-01-17T04:02:21.622Z,83.10
2019-01-17T04:03:38.743Z,83.20
2019-01-17T04:04:55.384Z,83.40
2019-01-17T04:06:11.966Z,83.50
2019-01-17T04:07:28.409Z,83.60
2019-01-17T04:08:44.809Z,83.70
2019-01-17T04:10:01.575Z,83.90
2019-01-17T04:11:18.641Z,83.90
2019-01-17T04:12:35.163Z,84.00
2019-01-17T04:13:52.011Z,84.00
2019-01-17T04:15:08.404Z,84.10
2019-01-17T04:16:23.600Z,84.20
2019-01-17T04:17:47.696Z,84.30
2019-01-17T04:19:03.975Z,84.50
2019-01-17T04:20:20.356Z,84.50
2019-01-17T04:21:36.926Z,84.60
2019-01-17T04:22:53.441Z,84.60
2019-01-17T04:24:09.682Z,84.80
2019-01-17T04:25:26.968Z,84.70
2019-01-17T04:26:44.101Z,84.80
2019-01-17T04:28:00.809Z,84.60
2019-01-17T04:29:17.880Z,84.70
2019-01-17T04:30:35.092Z,84.50
2019-01-17T04:31:52.557Z,84.50
2019-01-17T04:33:09.728Z,84.40
2019-01-17T04:34:26.295Z,84.40
2019-01-17T04:35:43.148Z,84.40
2019-01-17T04:36:59.677Z,84.20
2019-01-17T04:38:16.441Z,84.20
2019-01-17T04:39:33.717Z,84.20
2019-01-17T04:40:50.140Z,84.10
2019-01-17T04:42:07.304Z,83.90
2019-01-17T04:43:23.872Z,83.80
2019-01-17T04:44:40.193Z,83.80
2019-01-17T04:45:57.366Z,83.90
2019-01-17T04:47:14.046Z,84.00
2019-01-17T04:48:30.619Z,84.10
2019-01-17T04:49:45.877Z,84.10
2019-01-17T04:51:02.615Z,83.90
2019-01-17T04:52:18.969Z,83.90
2019-01-17T04:53:36.237Z,84.10
2019-01-17T04:54:52.689Z,83.90
2019-01-17T04:56:09.289Z,84.00
2019-01-17T04:57:25.814Z,84.10
2019-01-17T04:58:42.471Z,84.10
2019-01-17T04:59:58.923Z,84.10
2019-01-17T05:01:16.136Z,84.20
2019-01-17T05:02:32.669Z,84.10
2019-01-17T05:03:49.120Z,84.40
2019-01-17T05:05:05.603Z,84.40
2019-01-17T05:06:25.738Z,84.50
2019-01-17T05:07:42.402Z,84.50
2019-01-17T05:08:59.349Z,84.70
2019-01-17T05:10:16.703Z,84.60
2019-01-17T05:11:33.906Z,84.30
2019-01-17T05:12:50.927Z,84.20
2019-01-17T05:14:06.147Z,84.10
2019-01-17T05:15:30.519Z,84.10
2019-01-17T05:16:47.479Z,84.10
2019-01-17T05:18:04.106Z,84.10
2019-01-17T05:19:20.425Z,84.40
2019-01-17T05:20:37.005Z,84.20
2019-01-17T05:21:53.710Z,84.00
2019-01-17T05:23:10.895Z,84.00
2019-01-17T05:24:27.314Z,84.00
2019-01-17T05:25:44.473Z,84.00
2019-01-17T05:27:01.499Z,84.10
2019-01-17T05:28:18.001Z,84.00
2019-01-17T05:29:34.879Z,84.10
2019-01-17T05:30:50.094Z,84.10
2019-01-17T05:32:14.248Z,84.10
2019-01-17T05:33:30.677Z,84.20
2019-01-17T05:34:47.068Z,84.10
2019-01-17T05:36:04.002Z,84.10
2019-01-17T05:37:21.216Z,84.30
2019-01-17T05:38:37.958Z,84.20
2019-01-17T05:39:55.285Z,84.40
2019-01-17T05:41:11.841Z,84.50
2019-01-17T05:42:28.931Z,84.70
2019-01-17T05:43:46.121Z,84.80
2019-01-17T05:45:02.990Z,84.70
2019-01-17T05:46:20.185Z,84.80
2019-01-17T05:47:36.902Z,84.80
2019-01-17T05:48:53.647Z,84.90
2019-01-17T05:50:09.845Z,84.90
2019-01-17T05:51:26.714Z,84.80
2019-01-17T05:52:43.124Z,85.00
2019-01-17T05:53:59.618Z,85.00
2019-01-17T05:55:20.076Z,85.10
2019-01-17T05:56:34.172Z,85.10
2019-01-17T05:57:51.328Z,85.30
2019-01-17T05:59:07.608Z,85.40
2019-01-17T06:00:24.172Z,85.50
2019-01-17T06:01:40.570Z,85.80
2019-01-17T06:02:56.939Z,85.70
2019-01-17T06:04:14.204Z,85.80
2019-01-17T06:05:31.406Z,85.90
2019-01-17T06:06:48.009Z,85.80
2019-01-17T06:08:04.395Z,86.10
2019-01-17T06:09:20.853Z,86.20
2019-01-17T06:10:37.153Z,86.10
2019-01-17T06:11:53.440Z,86.30
2019-01-17T06:13:09.808Z,86.30
2019-01-17T06:14:26.756Z,86.40
2019-01-17T06:15:44.227Z,86.30
2019-01-17T06:17:00.461Z,86.40
2019-01-17T06:18:16.813Z,86.50
2019-01-17T06:19:33.633Z,86.30
2019-01-17T06:20:54.092Z,86.30
2019-01-17T06:21:59.288Z,86.40
2019-01-17T06:23:04.388Z,85.90
2019-01-17T06:24:09.515Z,86.30
2019-01-17T06:25:14.635Z,86.30
2019-01-17T06:26:19.845Z,86.20
2019-01-17T06:27:24.955Z,86.10
2019-01-17T06:28:30.087Z,86.10
2019-01-17T06:29:35.120Z,86.30
2019-01-17T06:30:40.228Z,86.20
2019-01-17T06:31:45.343Z,86.20
2019-01-17T06:32:50.405Z,86.20
2019-01-17T06:33:55.524Z,86.20
2019-01-17T06:35:00.653Z,86.10
2019-01-17T06:36:08.608Z,86.10
2019-01-17T06:37:13.785Z,86.10
2019-01-17T06:38:18.879Z,86.10
2019-01-17T06:39:24.139Z,86.10
2019-01-17T06:40:31.438Z,86.10
2019-01-17T06:41:36.541Z,85.90
2019-01-17T06:42:41.855Z,85.90
2019-01-17T06:43:46.914Z,86.10
2019-01-17T06:44:52.124Z,86.20
2019-01-17T06:45:57.233Z,86.10
2019-01-17T06:47:02.307Z,86.00
2019-01-17T06:48:07.361Z,86.00
2019-01-17T06:49:12.514Z,86.00
2019-01-17T06:50:17.677Z,85.90
2019-01-17T06:51:22.770Z,85.90
2019-01-17T06:52:27.808Z,85.80
2019-01-17T06:53:32.991Z,85.90
2019-01-17T06:54:38.085Z,85.80
2019-01-17T06:55:44.301Z,85.90
2019-01-17T06:56:49.475Z,86.00
2019-01-17T06:57:54.508Z,86.10
2019-01-17T06:58:59.698Z,86.30
2019-01-17T07:00:08.148Z,86.40
2019-01-17T07:01:13.268Z,86.40
2019-01-17T07:02:18.393Z,86.80
2019-01-17T07:03:23.521Z,86.60
2019-01-17T07:04:28.647Z,86.60
2019-01-17T07:05:33.757Z,86.70
2019-01-17T07:06:38.821Z,86.80
2019-01-17T07:07:43.965Z,86.90
2019-01-17T07:08:49.157Z,86.80
2019-01-17T07:09:54.306Z,86.70
2019-01-17T07:10:59.353Z,86.60
2019-01-17T07:12:04.466Z,86.70
2019-01-17T07:13:09.553Z,86.70
2019-01-17T07:14:14.688Z,86.60
2019-01-17T07:15:19.847Z,86.60
2019-01-17T07:16:24.960Z,86.60
2019-01-17T07:17:29.995Z,86.50
2019-01-17T07:18:35.106Z,86.40
2019-01-17T07:19:40.172Z,86.40
2019-01-17T07:20:45.202Z,86.50
2019-01-17T07:21:50.288Z,86.40
2019-01-17T07:22:55.309Z,86.30
2019-01-17T07:24:00.468Z,86.50
2019-01-17T07:25:06.508Z,86.50
2019-01-17T07:26:11.694Z,86.50
2019-01-17T07:27:16.721Z,86.60
2019-01-17T07:28:21.743Z,86.50
2019-01-17T07:29:26.920Z,86.40
2019-01-17T07:30:31.971Z,86.40
2019-01-17T07:31:37.107Z,86.40
2019-01-17T07:32:42.242Z,86.50
2019-01-17T07:33:47.369Z,86.60
2019-01-17T07:34:52.444Z,86.70
2019-01-17T07:35:57.592Z,86.70
2019-01-17T07:37:02.752Z,86.70
2019-01-17T07:38:07.886Z,86.70
2019-01-17T07:39:13.032Z,86.70
2019-01-17T07:40:18.167Z,86.70
2019-01-17T07:41:23.208Z,86.80
2019-01-17T07:42:28.240Z,86.80
2019-01-17T07:43:33.372Z,86.70
2019-01-17T07:44:38.396Z,86.80
2019-01-17T07:45:43.427Z,86.80
2019-01-17T07:46:48.592Z,86.80
2019-01-17T07:47:53.708Z,87.20
2019-01-17T07:48:58.760Z,87.30
2019-01-17T07:50:05.227Z,87.40
2019-01-17T07:51:10.402Z,87.60
2019-01-17T07:52:15.521Z,87.70
2019-01-17T07:53:20.700Z,87.40
2019-01-17T07:54:25.870Z,87.40
2019-01-17T07:55:31.054Z,87.50
2019-01-17T07:56:36.608Z,87.40
2019-01-17T07:57:41.706Z,87.50
2019-01-17T07:58:46.805Z,87.40
2019-01-17T07:59:51.812Z,87.50
2019-01-17T08:00:56.989Z,87.30
2019-01-17T08:02:02.062Z,87.30
2019-01-17T08:03:07.097Z,87.50
2019-01-17T08:04:12.570Z,87.50
2019-01-17T08:05:17.716Z,87.40
2019-01-17T08:06:22.897Z,87.60
2019-01-17T08:07:27.953Z,87.80
2019-01-17T08:08:33.079Z,87.80
2019-01-17T08:09:38.184Z,87.90
2019-01-17T08:10:43.277Z,87.90
2019-01-17T08:11:48.395Z,88.00
2019-01-17T08:12:53.603Z,88.10
2019-01-17T08:13:58.738Z,87.90
2019-01-17T08:15:04.274Z,87.90
2019-01-17T08:16:09.401Z,88.00
2019-01-17T08:17:14.478Z,88.10
2019-01-17T08:18:19.572Z,88.20
2019-01-17T08:19:24.686Z,88.30
2019-01-17T08:20:29.823Z,88.20
2019-01-17T08:21:34.936Z,88.30
2019-01-17T08:22:39.987Z,88.20
2019-01-17T08:23:45.028Z,88.30
2019-01-17T08:24:50.124Z,88.30
2019-01-17T08:25:55.185Z,88.30
2019-01-17T08:27:00.327Z,88.50
2019-01-17T08:28:05.348Z,88.40
2019-01-17T08:29:10.449Z,88.30
2019-01-17T08:30:17.843Z,88.30
2019-01-17T08:31:22.993Z,88.20
2019-01-17T08:32:28.057Z,88.30
2019-01-17T08:33:33.111Z,88.30
2019-01-17T08:34:38.229Z,88.50
2019-01-17T08:35:43.368Z,88.30
2019-01-17T08:36:48.475Z,88.30
2019-01-17T08:37:53.518Z,88.40
2019-01-17T08:38:58.607Z,88.60
2019-01-17T08:40:04.696Z,88.80
2019-01-17T08:41:09.796Z,89.00
2019-01-17T08:42:14.893Z,89.10
2019-01-17T08:43:20.034Z,89.30
2019-01-17T08:44:25.085Z,89.40
2019-01-17T08:45:30.207Z,89.40
2019-01-17T08:46:35.263Z,89.50
2019-01-17T08:47:40.257Z,89.20
2019-01-17T08:48:45.318Z,89.40
2019-01-17T08:49:50.349Z,89.60
2019-01-17T08:50:55.380Z,89.50
2019-01-17T08:52:00.495Z,89.60
2019-01-17T08:53:05.612Z,89.80
2019-01-17T08:54:10.712Z,89.60
2019-01-17T08:55:15.771Z,89.60
2019-01-17T08:56:20.900Z,89.50
2019-01-17T08:57:25.920Z,89.30
2019-01-17T08:58:31.061Z,89.30
2019-01-17T08:59:36.149Z,89.20
2019-01-17T09:00:41.265Z,89.30
2019-01-17T09:01:46.292Z,89.20
2019-01-17T09:02:51.449Z,89.10
2019-01-17T09:03:56.592Z,89.00
2019-01-17T09:05:01.686Z,88.80
2019-01-17T09:06:06.768Z,88.60
2019-01-17T09:07:11.772Z,88.60
2019-01-17T09:08:16.904Z,88.60
2019-01-17T09:09:22.015Z,87.70
2019-01-17T09:10:31.267Z,88.50
2019-01-17T09:11:36.316Z,87.60
2019-01-17T09:12:41.471Z,87.60
2019-01-17T09:13:46.547Z,87.50
2019-01-17T09:14:51.547Z,88.20
2019-01-17T09:15:56.601Z,88.20
2019-01-17T09:17:01.745Z,87.50
2019-01-17T09:18:06.880Z,87.40
2019-01-17T09:19:11.916Z,87.30
2019-01-17T09:20:17.021Z,87.30
2019-01-17T09:21:22.106Z,87.40
2019-01-17T09:22:28.273Z,87.30
2019-01-17T09:23:33.400Z,87.20
2019-01-17T09:24:38.545Z,87.10
2019-01-17T09:25:43.651Z,87.10
2019-01-17T09:26:48.773Z,86.90
2019-01-17T09:27:53.862Z,87.20
2019-01-17T09:28:59.976Z,86.60
2019-01-17T09:30:06.075Z,86.60
2019-01-17T09:31:11.065Z,86.20
2019-01-17T09:32:16.160Z,86.30
2019-01-17T09:33:21.253Z,86.30
2019-01-17T09:34:26.404Z,86.40
2019-01-17T09:35:31.501Z,86.20
2019-01-17T09:36:36.567Z,86.20
2019-01-17T09:37:41.641Z,86.10
2019-01-17T09:38:46.743Z,86.20
2019-01-17T09:39:51.864Z,86.20
2019-01-17T09:40:56.968Z,85.90
2019-01-17T09:42:02.065Z,85.60
2019-01-17T09:43:07.172Z,85.30
2019-01-17T09:44:12.256Z,85.10
2019-01-17T09:45:17.531Z,85.00
2019-01-17T09:46:22.612Z,84.80
2019-01-17T09:47:27.628Z,84.80
2019-01-17T09:48:32.735Z,84.70
2019-01-17T09:49:37.861Z,84.30
2019-01-17T09:50:42.986Z,84.20
2019-01-17T09:51:48.139Z,84.10
2019-01-17T09:52:53.338Z,83.90
2019-01-17T09:53:58.436Z,84.00
2019-01-17T09:55:03.533Z,84.30
2019-01-17T09:56:14.682Z,84.20
2019-01-17T09:57:15.278Z,83.80
2019-01-17T09:58:20.390Z,84.00
2019-01-17T09:59:25.476Z,84.10
2019-01-17T10:00:31.812Z,84.30
2019-01-17T10:01:36.818Z,84.10
2019-01-17T10:02:41.832Z,83.90
2019-01-17T10:03:46.845Z,83.50
2019-01-17T10:04:51.910Z,83.50
2019-01-17T10:05:57.032Z,83.70
2019-01-17T10:07:02.129Z,83.60
2019-01-17T10:08:07.113Z,83.50
2019-01-17T10:09:12.216Z,83.50
2019-01-17T10:10:18.324Z,83.40
2019-01-17T10:11:23.444Z,83.60
2019-01-17T10:12:28.545Z,83.70
2019-01-17T10:13:33.656Z,83.80
2019-01-17T10:14:38.780Z,83.70
2019-01-17T10:16:08.315Z,83.70
2019-01-17T10:18:00.621Z,83.60
2019-01-17T10:19:49.698Z,83.50
2019-01-17T10:21:08.816Z,83.30
2019-01-17T10:23:00.918Z,83.20
2019-01-17T10:25:04.868Z,83.30
2019-01-17T10:26:40.960Z,83.40
2019-01-17T10:28:18.401Z,83.40
2019-01-17T10:30:03.360Z,83.70
2019-01-17T10:31:39.215Z,83.70
2019-01-17T10:33:07.024Z,83.90
2019-01-17T10:34:23.334Z,84.10
2019-01-17T10:35:47.813Z,84.10
2019-01-17T10:37:34.800Z,84.10
2019-01-17T10:39:20.702Z,84.30
2019-01-17T10:41:03.576Z,84.60
2019-01-17T10:42:39.978Z,85.10
2019-01-17T10:44:28.238Z,85.30
2019-01-17T10:45:58.719Z,85.80
2019-01-17T10:47:47.596Z,86.70
2019-01-17T10:49:10.088Z,87.20
2019-01-17T10:50:32.929Z,87.80
2019-01-17T10:51:53.828Z,88.10
2019-01-17T10:53:24.133Z,88.60
2019-01-17T10:55:05.115Z,88.50
2019-01-17T10:56:50.416Z,88.50
2019-01-17T10:58:24.603Z,89.00
2019-01-17T10:59:37.837Z,88.30
2019-01-17T11:01:06.769Z,88.30
2019-01-17T11:02:34.368Z,87.90
2019-01-17T11:04:26.563Z,88.00
2019-01-17T11:05:49.823Z,88.40
2019-01-17T11:07:48.693Z,88.60
2019-01-17T11:09:28.258Z,89.10
2019-01-17T11:11:01.881Z,90.00
2019-01-17T11:12:44.243Z,90.20
2019-01-17T11:14:12.818Z,90.40
2019-01-17T11:16:01.843Z,90.20
2019-01-17T11:17:41.825Z,90.50
2019-01-17T11:18:55.881Z,90.10
2019-01-17T11:20:21.199Z,89.50
2019-01-17T11:21:56.385Z,89.60
2019-01-17T11:23:51.087Z,88.60
2019-01-17T11:25:31.785Z,88.40
2019-01-17T11:27:15.840Z,88.20
2019-01-17T11:28:44.665Z,88.50
2019-01-17T11:30:33.600Z,88.40
2019-01-17T11:32:09.721Z,89.10
2019-01-17T11:33:41.452Z,89.20
2019-01-17T11:35:33.425Z,89.10
2019-01-17T11:37:19.942Z,88.90
2019-01-17T11:39:33.361Z,89.30
2019-01-17T11:41:19.077Z,89.70
2019-01-17T11:42:50.211Z,90.00
2019-01-17T11:44:47.589Z,90.30
2019-01-17T11:46:28.339Z,90.50
2019-01-17T11:48:17.530Z,90.70
2019-01-17T11:50:09.792Z,90.80
2019-01-17T11:52:05.821Z,91.00
2019-01-17T11:53:37.759Z,91.20
2019-01-17T11:54:51.987Z,91.00
2019-01-17T11:56:26.325Z,90.80
2019-01-17T11:58:02.658Z,90.70
2019-01-17T11:59:50.764Z,90.60
2019-01-17T12:01:26.780Z,90.80
2019-01-17T12:03:13.145Z,90.60
2019-01-17T12:04:32.588Z,90.50
2019-01-17T12:05:38.781Z,90.50
2019-01-17T12:06:43.897Z,90.50
2019-01-17T12:07:49.016Z,90.50
2019-01-17T12:08:54.084Z,90.50
2019-01-17T12:09:59.194Z,90.50
2019-01-17T12:11:04.325Z,90.50
2019-01-17T12:12:10.809Z,90.60
2019-01-17T12:13:17.482Z,90.40
2019-01-17T12:14:24.127Z,90.10
2019-01-17T12:15:29.337Z,90.00
2019-01-17T12:16:34.465Z,89.90
2019-01-17T12:17:39.581Z,90.10
2019-01-17T12:18:44.724Z,90.00
2019-01-17T12:19:49.773Z,90.00
2019-01-17T12:20:54.889Z,89.90
2019-01-17T12:22:00.022Z,90.00
2019-01-17T12:23:05.137Z,90.00
2019-01-17T12:24:10.551Z,89.80
2019-01-17T12:25:15.656Z,89.40
2019-01-17T12:26:21.702Z,89.30
2019-01-17T12:27:26.733Z,88.70
2019-01-17T12:28:31.853Z,87.90
2019-01-17T12:29:36.977Z,86.40
2019-01-17T12:30:42.092Z,85.70
2019-01-17T12:31:47.244Z,85.60
2019-01-17T12:32:52.309Z,85.70
2019-01-17T12:33:57.425Z,85.90
2019-01-17T12:35:02.472Z,85.20
2019-01-17T12:36:07.663Z,84.80
2019-01-17T12:37:12.848Z,84.40
2019-01-17T12:38:17.965Z,83.80
2019-01-17T12:39:23.064Z,83.50
2019-01-17T12:40:28.190Z,81.40
2019-01-17T12:41:33.412Z,80.20
2019-01-17T12:42:38.596Z,79.50
2019-01-17T12:43:43.713Z,78.70
2019-01-17T12:44:48.760Z,77.30
2019-01-17T12:45:53.804Z,77.00
2019-01-17T12:46:58.946Z,76.60
2019-01-17T12:48:04.327Z,76.10
2019-01-17T12:49:09.484Z,75.60
2019-01-17T12:50:17.265Z,75.80
2019-01-17T12:51:22.457Z,75.90
2019-01-17T12:52:27.607Z,75.80
2019-01-17T12:53:32.730Z,75.80
2019-01-17T12:54:37.856Z,75.70
2019-01-17T12:55:43.001Z,76.10
2019-01-17T12:56:53.873Z,76.00
2019-01-17T12:57:54.872Z,75.40
2019-01-17T12:58:59.988Z,75.40
2019-01-17T13:00:08.515Z,75.30
2019-01-17T13:01:13.624Z,75.30
2019-01-17T13:02:18.662Z,74.90
2019-01-17T13:03:23.777Z,75.10
2019-01-17T13:04:28.893Z,74.60
2019-01-17T13:05:34.056Z,74.60
2019-01-17T13:06:39.247Z,74.60
2019-01-17T13:07:44.369Z,74.10
2019-01-17T13:08:49.482Z,74.30
2019-01-17T13:09:54.617Z,73.60
2019-01-17T13:10:59.664Z,73.10
2019-01-17T13:12:04.896Z,72.90
2019-01-17T13:13:10.016Z,73.00
2019-01-17T13:14:15.169Z,72.70
2019-01-17T13:15:20.282Z,72.70
2019-01-17T13:16:25.370Z,73.20
2019-01-17T13:17:30.483Z,73.10
2019-01-17T13:18:35.628Z,73.10
2019-01-17T13:19:40.974Z,73.60
2019-01-17T13:20:46.167Z,73.60
2019-01-17T13:21:51.251Z,73.60
2019-01-17T13:22:56.357Z,73.50
2019-01-17T13:24:01.456Z,73.40
2019-01-17T13:25:08.167Z,72.70
2019-01-17T13:26:13.268Z,71.70
2019-01-17T13:27:18.378Z,71.40
2019-01-17T13:28:23.467Z,71.70
2019-01-17T13:29:28.622Z,71.40
2019-01-17T13:30:33.665Z,71.20
2019-01-17T13:31:38.756Z,71.70
2019-01-17T13:32:43.844Z,71.50
2019-01-17T13:33:48.943Z,71.20
2019-01-17T13:34:54.090Z,70.40
2019-01-17T13:35:59.162Z,70.10
2019-01-17T13:37:04.367Z,70.60
2019-01-17T13:38:09.458Z,71.00
2019-01-17T13:39:14.577Z,70.30
2019-01-17T13:40:21.579Z,70.10
2019-01-17T13:41:26.714Z,69.50
2019-01-17T13:42:31.905Z,69.20
2019-01-17T13:43:37.016Z,69.30
2019-01-17T13:44:42.117Z,69.50
2019-01-17T13:45:47.213Z,70.00
2019-01-17T13:46:52.327Z,70.60
2019-01-17T13:47:57.463Z,70.50
2019-01-17T13:49:02.563Z,70.20
2019-01-17T13:50:09.478Z,70.10
2019-01-17T13:51:14.595Z,70.20
2019-01-17T13:52:19.719Z,69.50
2019-01-17T13:53:24.732Z,69.50
2019-01-17T13:54:29.851Z,69.30
2019-01-17T13:55:34.988Z,69.20
2019-01-17T13:56:40.116Z,69.20
2019-01-17T13:57:45.302Z,69.50
2019-01-17T13:58:50.392Z,70.10
2019-01-17T13:59:55.504Z,70.60
2019-01-17T14:01:00.583Z,70.80
2019-01-17T14:02:05.721Z,71.10
2019-01-17T14:03:10.836Z,72.20
2019-01-17T14:04:16.922Z,73.10
2019-01-17T14:05:22.158Z,74.20
2019-01-17T14:06:27.284Z,75.10
2019-01-17T14:07:32.393Z,76.00
2019-01-17T14:08:37.504Z,76.80
2019-01-17T14:09:42.615Z,77.90
2019-01-17T14:10:47.764Z,77.90
2019-01-17T14:11:52.863Z,78.20
2019-01-17T14:12:57.977Z,78.50
2019-01-17T14:14:03.080Z,79.00
2019-01-17T14:15:15.446Z,79.00
2019-01-17T14:16:20.557Z,79.00
2019-01-17T14:17:25.672Z,79.00
2019-01-17T14:18:30.772Z,79.00
2019-01-17T14:19:35.932Z,78.80
2019-01-17T14:20:41.048Z,78.80
2019-01-17T14:21:46.197Z,79.80
2019-01-17T14:22:51.296Z,79.90
2019-01-17T14:23:56.384Z,79.80
2019-01-17T14:25:01.512Z,79.80
2019-01-17T14:26:06.678Z,79.90
2019-01-17T14:27:14.084Z,80.00
2019-01-17T14:28:18.573Z,80.30
2019-01-17T14:29:23.667Z,80.60
2019-01-17T14:30:30.711Z,80.80
2019-01-17T14:31:35.739Z,80.60
2019-01-17T14:32:40.961Z,80.80
2019-01-17T14:33:46.065Z,80.90
2019-01-17T14:34:51.152Z,81.10
2019-01-17T14:35:56.271Z,81.40
2019-01-17T14:37:01.396Z,81.30
2019-01-17T14:38:06.528Z,80.80
2019-01-17T14:39:11.601Z,80.50
2019-01-17T14:40:16.716Z,80.50
2019-01-17T14:41:21.877Z,80.20
2019-01-17T14:42:27.020Z,80.00
2019-01-17T14:43:32.068Z,80.20
2019-01-17T14:44:37.209Z,80.40
2019-01-17T14:45:42.360Z,80.40
2019-01-17T14:46:47.532Z,80.70
2019-01-17T14:47:52.577Z,80.70
2019-01-17T14:48:57.611Z,80.80
2019-01-17T14:50:02.752Z,80.90
2019-01-17T14:51:07.929Z,81.30
2019-01-17T14:52:13.075Z,81.60
2019-01-17T14:53:18.178Z,81.40
2019-01-17T14:54:23.288Z,81.40
2019-01-17T14:55:28.376Z,81.20
2019-01-17T14:56:33.503Z,81.20
2019-01-17T14:57:38.585Z,81.30
2019-01-17T14:58:43.729Z,81.40
2019-01-17T14:59:48.836Z,81.30
2019-01-17T15:00:53.944Z,81.40
2019-01-17T15:01:59.099Z,81.30
2019-01-17T15:03:04.385Z,81.20
2019-01-17T15:04:09.544Z,81.30
2019-01-17T15:05:15.086Z,81.10
2019-01-17T15:06:20.232Z,80.90
2019-01-17T15:07:26.419Z,81.00
2019-01-17T15:08:31.584Z,80.80
2019-01-17T15:09:36.734Z,80.90
2019-01-17T15:10:42.415Z,80.80
2019-01-17T15:11:47.528Z,80.80
2019-01-17T15:12:52.669Z,81.30
2019-01-17T15:13:57.708Z,81.80
2019-01-17T15:15:02.815Z,81.90
2019-01-17T15:16:08.008Z,82.10
2019-01-17T15:17:13.133Z,82.30
2019-01-17T15:18:18.261Z,82.20
2019-01-17T15:19:23.417Z,82.10
2019-01-17T15:20:28.601Z,82.10
2019-01-17T15:21:33.767Z,81.90
2019-01-17T15:22:38.916Z,81.90
2019-01-17T15:23:44.025Z,81.90
2019-01-17T15:24:49.054Z,81.80
2019-01-17T15:25:54.113Z,81.90
2019-01-17T15:26:59.188Z,82.10
2019-01-17T15:28:04.265Z,82.20
2019-01-17T15:29:09.379Z,82.50
2019-01-17T15:30:17.465Z,82.70
2019-01-17T15:31:22.617Z,82.90
2019-01-17T15:32:27.759Z,82.80
2019-01-17T15:33:32.894Z,82.70
2019-01-17T15:34:38.044Z,82.80
2019-01-17T15:35:43.136Z,82.50
2019-01-17T15:36:48.247Z,82.60
2019-01-17T15:37:53.410Z,82.70
2019-01-17T15:38:58.457Z,82.80
2019-01-17T15:40:03.893Z,82.70
2019-01-17T15:41:09.016Z,82.70
2019-01-17T15:42:14.135Z,82.30
2019-01-17T15:43:19.222Z,82.30
2019-01-17T15:44:24.377Z,82.40
2019-01-17T15:45:29.496Z,81.80
2019-01-17T15:46:34.627Z,81.60
2019-01-17T15:47:39.729Z,81.20
2019-01-17T15:48:44.853Z,82.00
2019-01-17T15:49:49.995Z,82.20
2019-01-17T15:50:55.103Z,82.30
2019-01-17T15:52:00.195Z,82.60
2019-01-17T15:53:05.385Z,82.80
2019-01-17T15:54:11.565Z,82.80